x

Orange Beach - 44 Nm Se Of Mobile, Al (42012) Wave Buoy

1:50pm - Tue 27th Jan 2015 All times are CST. -6 hours from GMT.

  • Sig Wave height 2.6ft
  • Swell Direction
  • Peak Period 5s
  • Average Period 4s
  • Wind
    18mph, 20mph gusts
  • Sea Temp 62°f
  • Air Temp 62°f
  • Sea Pressure 1015.9mb
  • Orange Beach - 44 Nm Se Of Mobile, Al
  • Orange Beach - 44 Nm Se Of Mobile, Al

More Historic Weather Station data

Upgrade to MSW Pro to gain access to the past 30 days of data for over 8000 Wavebouys and Weather Stations around the globe.

Join Pro

Comparision Forecast

View Surf forecast
   
Tue 01/27 1:50pm 2.5ft 5s 4s 18 20 mph 1015.9mb 62f 62f
12:50pm 2.5ft 5s 4s 16 18 mph 1016.7mb 62f 59f
11:50am 3ft 5s 4s 11 13 mph 1017.7mb 61f 57f
10:50am 3.5ft 5s 4s 11 13 mph 1018.5mb 61f 56f
9:50am 4ft 5s 4s 13 16 mph 1018.6mb 61f 56f
8:50am 4.5ft 5s 4s 20 25 mph 1017.9mb 61f 56f
7:50am 4.5ft 5s 4s 25 27 mph 1017.1mb 61f 59f
6:50am 4ft 5s 4s 22 27 mph 1016.6mb 62f 60f
5:50am 4ft 4s 4s 20 25 mph 1016.1mb 62f 59f
4:50am 3.5ft 8s 4s 22 25 mph 1015.9mb 62f 59f
3:50am 4.5ft 8s 5s 22 25 mph 1016.1mb 62f 58f
2:50am 4ft 8s 4s 20 25 mph 1016.6mb 62f 58f
1:50am 3.5ft 8s 4s 25 31 mph 1017.1mb 62f 59f
12:50am 3.5ft 8s 5s 20 22 mph 1017.1mb 62f 59f
Mon 01/26 11:50pm 3.5ft 8s 5s 16 18 mph 1016.6mb 62f 59f
10:50pm 3ft 8s 5s 16 18 mph 1016.8mb 62f 58f
9:50pm 3.5ft 8s 5s 16 18 mph 1017mb 62f 58f
8:50pm 3.5ft 8s 5s 11 13 mph 1017.4mb 62f 57f
7:50pm 3ft 9s 5s 13 16 mph 1017.3mb 62f 57f
6:50pm 3.5ft 8s 5s 13 16 mph 1017.4mb 62f 57f
5:50pm 3.5ft 9s 4s 18 20 mph 1016.6mb 62f 58f
4:50pm 3.5ft 9s 4s 20 25 mph 1015.6mb 62f 58f
3:50pm 3.5ft 9s 5s 20 22 mph 1015.1mb 62f 58f
2:50pm 3.5ft 9s 4s 20 25 mph 1014.8mb 62f 57f
1:50pm 3.5ft 9s 4s 20 25 mph 1014.8mb 62f 56f
12:50pm 3.5ft 8s 4s 20 22 mph 1015.1mb 62f 54f
11:50am 3.5ft 5s 4s 20 27 mph 1016.1mb 62f 52f
10:50am 3.5ft 5s 5s 20 27 mph 1017.2mb 62f 51f
9:50am 4ft 5s 5s 18 25 mph 1017.1mb 62f 51f
8:50am 4ft 5s 4s 22 31 mph 1016.9mb 62f 50f
7:50am 4.5ft 5s 5s 25 29 mph 1015.9mb 62f 51f
6:50am 5ft 7s 5s 27 36 mph 1015.4mb 62f 52f
5:50am 5ft 7s 5s 27 34 mph 1014.4mb 62f 54f
4:50am 5ft 8s 5s 27 34 mph 1013.6mb 62f 55f
3:50am 5ft 8s 5s 22 25 mph 1013.7mb 62f 56f
2:50am 5.5ft 7s 5s 22 27 mph 1013.5mb 62f 57f
1:50am 6ft 6s 5s 25 29 mph 1012.6mb 61f 59f
12:50am 6ft 7s 5s 25 29 mph 1011.9mb 61f 60f
Sun 01/25 11:50pm 7.5ft 7s 5s 25 29 mph 1011.5mb 61f 61f
10:50pm 8ft 7s 5s 29 34 mph 1011.4mb 62f 61f
9:50pm 8ft 7s 5s 29 31 mph 1011mb 62f 61f
8:50pm 9ft 6s 6s 29 36 mph 1010.7mb 62f 62f
7:50pm 9ft 7s 6s 31 38 mph 1010.5mb 62f 62f
6:50pm 8ft 6s 5s 29 34 mph 1010.3mb 62f 62f
5:50pm 6ft 6s 5s 29 34 mph 1010.5mb 62f 62f
4:50pm 5ft 5s 4s 29 34 mph 1011.1mb 62f 62f
3:50pm 4ft 5s 4s 27 34 mph 1011.6mb 62f 61f
2:50pm 3.5ft 5s 4s 25 29 mph 1012.2mb 62f 60f
1:50pm 2.5ft 4s 4s 22 25 mph 1012.9mb 62f 59f
12:50pm 2.5ft 5s 4s 18 22 mph 1013.6mb 62f 58f
11:50am 2.5ft 6s 4s 16 20 mph 1015.1mb 62f 58f
10:50am 2.5ft 5s 4s 16 18 mph 1016.3mb 63f 57f
9:50am 2.5ft 8s 4s 13 18 mph 1017.3mb 65f 57f
8:50am 2.5ft 5s 5s 11 13 mph 1017.6mb 65f 57f
7:50am 3ft 5s 5s 11 13 mph 1017.7mb 65f 56f
6:50am 3.5ft 5s 4s 9 11 mph 1016.9mb 64f 55f
5:50am 3.5ft 5s 5s 13 18 mph 1017.1mb 64f 55f
4:50am 3.5ft 5s 4s 18 20 mph 1017.1mb 65f 55f
3:50am 4ft 8s 5s 18 20 mph 1016.8mb 65f 55f
2:50am 3.5ft 4s 4s 20 25 mph 1017.9mb 65f 56f
1:50am 3.5ft 7s 4s 18 22 mph 1017.6mb 65f 57f
12:50am 3.5ft 8s 4s 18 22 mph 1017.4mb 65f 57f
Sat 01/24 11:50pm 3.5ft 8s 4s 16 20 mph 1017.4mb 65f 56f
10:50pm 3ft 8s 4s 16 20 mph 1017.7mb 65f 56f
9:50pm 2.5ft 8s 4s 16 18 mph 1017.4mb 65f 56f
8:50pm 2.5ft 8s 4s 16 20 mph 1017.5mb 65f 56f
7:50pm 2.5ft 8s 4s 16 18 mph 1017.5mb 65f 55f
6:50pm 2.5ft 8s 4s 16 20 mph 1017.8mb 65f 55f
5:50pm 2.5ft 8s 5s 16 20 mph 1017.8mb 65f 55f
4:50pm 2ft 8s 4s 13 16 mph 1017.3mb 65f 55f
3:50pm 2.5ft 8s 4s 13 18 mph 1017.1mb 65f 54f
2:50pm 2.5ft 8s 4s 16 18 mph 1017mb 65f 53f
1:50pm 3ft 8s 4s 20 25 mph 1017.1mb 65f 53f
12:50pm 3.5ft 5s 4s 20 25 mph 1017.6mb 65f 51f
11:50am 3.5ft 6s 4s 16 22 mph 1019mb 65f 50f
10:50am 4ft 6s 5s 20 25 mph 1019.7mb 65f 49f
9:50am 4ft 5s 4s 22 31 mph 1019.7mb 65f 47f
8:50am 4.5ft 6s 4s 22 29 mph 1019mb 65f 46f
7:50am 4.5ft 6s 5s 25 29 mph 1018.3mb 65f 47f
6:50am 4.5ft 6s 5s 25 34 mph 1017.2mb 66f 47f
5:50am 5ft 6s 5s 22 29 mph 1016.4mb 66f 47f
4:50am 5ft 6s 5s 25 29 mph 1015.1mb 66f 48f
3:50am 5.5ft 6s 5s 27 31 mph 1014.7mb 66f 48f
2:50am 6ft 6s 5s 29 36 mph 1014.3mb 66f 48f
1:50am 6ft 6s 5s 29 36 mph 1013.6mb 66f 49f
12:50am 5ft 8s 5s 29 34 mph 1012.8mb 66f 48f
Fri 01/23 11:50pm 5ft 8s 5s 27 31 mph 1012.7mb 66f 50f
10:50pm 5ft 8s 5s 25 29 mph 1012.5mb 66f 51f
9:50pm 5ft 8s 5s 22 29 mph 1012.1mb 67f 51f